sensor_id;sensor_type;location;lat;lon;timestamp;temperature;humidity
51815;DHT22;37874;53.158;6.766;2022-10-31T00:02:21;20.70;70.00
51815;DHT22;37874;53.158;6.766;2022-10-31T00:04:46;20.70;70.00
51815;DHT22;37874;53.158;6.766;2022-10-31T00:07:12;20.70;70.10
51815;DHT22;37874;53.158;6.766;2022-10-31T00:09:37;20.80;69.90
51815;DHT22;37874;53.158;6.766;2022-10-31T00:12:03;20.70;70.00
51815;DHT22;37874;53.158;6.766;2022-10-31T00:14:29;20.60;69.80
51815;DHT22;37874;53.158;6.766;2022-10-31T00:16:54;20.70;69.80
51815;DHT22;37874;53.158;6.766;2022-10-31T00:19:20;20.70;69.80
51815;DHT22;37874;53.158;6.766;2022-10-31T00:21:46;20.60;69.70
51815;DHT22;37874;53.158;6.766;2022-10-31T00:24:11;20.70;69.80
51815;DHT22;37874;53.158;6.766;2022-10-31T00:26:37;20.60;69.60
51815;DHT22;37874;53.158;6.766;2022-10-31T00:29:03;20.60;69.50
51815;DHT22;37874;53.158;6.766;2022-10-31T00:31:29;20.50;69.40
51815;DHT22;37874;53.158;6.766;2022-10-31T00:33:55;20.60;69.70
51815;DHT22;37874;53.158;6.766;2022-10-31T00:36:20;20.60;69.60
51815;DHT22;37874;53.158;6.766;2022-10-31T00:38:47;20.60;69.70
51815;DHT22;37874;53.158;6.766;2022-10-31T00:41:15;20.60;69.40
51815;DHT22;37874;53.158;6.766;2022-10-31T00:43:41;20.60;69.40
51815;DHT22;37874;53.158;6.766;2022-10-31T00:46:07;20.60;69.20
51815;DHT22;37874;53.158;6.766;2022-10-31T00:48:33;20.60;69.20
51815;DHT22;37874;53.158;6.766;2022-10-31T00:50:59;20.60;69.10
51815;DHT22;37874;53.158;6.766;2022-10-31T00:53:24;20.60;69.20
51815;DHT22;37874;53.158;6.766;2022-10-31T00:55:50;20.60;69.20
51815;DHT22;37874;53.158;6.766;2022-10-31T00:58:16;20.60;69.40
51815;DHT22;37874;53.158;6.766;2022-10-31T01:00:41;20.60;69.50
51815;DHT22;37874;53.158;6.766;2022-10-31T01:03:08;20.60;69.30
51815;DHT22;37874;53.158;6.766;2022-10-31T01:05:33;20.60;69.40
51815;DHT22;37874;53.158;6.766;2022-10-31T01:07:59;20.50;69.20
51815;DHT22;37874;53.158;6.766;2022-10-31T01:10:25;20.60;69.20
51815;DHT22;37874;53.158;6.766;2022-10-31T01:12:50;20.50;69.10
51815;DHT22;37874;53.158;6.766;2022-10-31T01:15:21;20.60;69.20
51815;DHT22;37874;53.158;6.766;2022-10-31T01:17:48;20.50;69.20
51815;DHT22;37874;53.158;6.766;2022-10-31T01:20:14;20.50;69.20
51815;DHT22;37874;53.158;6.766;2022-10-31T01:22:41;20.50;68.90
51815;DHT22;37874;53.158;6.766;2022-10-31T01:25:07;20.50;69.00
51815;DHT22;37874;53.158;6.766;2022-10-31T01:27:33;20.50;68.90
51815;DHT22;37874;53.158;6.766;2022-10-31T01:29:59;20.50;68.70
51815;DHT22;37874;53.158;6.766;2022-10-31T01:32:25;20.60;69.00
51815;DHT22;37874;53.158;6.766;2022-10-31T01:34:54;20.50;68.90
51815;DHT22;37874;53.158;6.766;2022-10-31T01:37:20;20.60;68.80
51815;DHT22;37874;53.158;6.766;2022-10-31T01:39:47;20.50;68.80
51815;DHT22;37874;53.158;6.766;2022-10-31T01:42:18;20.50;68.70
51815;DHT22;37874;53.158;6.766;2022-10-31T01:44:57;20.50;68.70
51815;DHT22;37874;53.158;6.766;2022-10-31T01:47:44;20.50;68.80
51815;DHT22;37874;53.158;6.766;2022-10-31T01:50:30;20.50;68.70
51815;DHT22;37874;53.158;6.766;2022-10-31T01:52:57;20.50;68.70
51815;DHT22;37874;53.158;6.766;2022-10-31T01:55:30;20.50;68.60
51815;DHT22;37874;53.158;6.766;2022-10-31T01:58:04;20.50;68.70
51815;DHT22;37874;53.158;6.766;2022-10-31T02:00:31;20.50;68.70
51815;DHT22;37874;53.158;6.766;2022-10-31T02:02:57;20.50;68.50
51815;DHT22;37874;53.158;6.766;2022-10-31T02:05:26;20.50;68.30
51815;DHT22;37874;53.158;6.766;2022-10-31T02:10:22;20.50;68.40
51815;DHT22;37874;53.158;6.766;2022-10-31T02:12:51;20.50;68.40
51815;DHT22;37874;53.158;6.766;2022-10-31T02:15:18;20.50;68.40
51815;DHT22;37874;53.158;6.766;2022-10-31T02:17:44;20.50;68.30
51815;DHT22;37874;53.158;6.766;2022-10-31T02:20:24;20.50;68.20
51815;DHT22;37874;53.158;6.766;2022-10-31T02:30:58;20.50;68.20
51815;DHT22;37874;53.158;6.766;2022-10-31T02:33:34;20.50;68.20
51815;DHT22;37874;53.158;6.766;2022-10-31T02:36:05;20.50;68.00
51815;DHT22;37874;53.158;6.766;2022-10-31T02:44:15;20.50;68.00
51815;DHT22;37874;53.158;6.766;2022-10-31T02:47:36;20.50;67.80
51815;DHT22;37874;53.158;6.766;2022-10-31T02:52:16;20.40;67.70
51815;DHT22;37874;53.158;6.766;2022-10-31T02:54:43;20.50;67.80
51815;DHT22;37874;53.158;6.766;2022-10-31T02:57:09;20.50;67.60
51815;DHT22;37874;53.158;6.766;2022-10-31T02:59:38;20.50;67.60
51815;DHT22;37874;53.158;6.766;2022-10-31T03:07:23;20.40;67.40
51815;DHT22;37874;53.158;6.766;2022-10-31T03:10:16;20.40;67.30
51815;DHT22;37874;53.158;6.766;2022-10-31T03:12:48;20.50;67.40
51815;DHT22;37874;53.158;6.766;2022-10-31T03:18:01;20.50;67.30
51815;DHT22;37874;53.158;6.766;2022-10-31T03:20:44;20.40;67.30
51815;DHT22;37874;53.158;6.766;2022-10-31T03:23:14;20.40;67.10
51815;DHT22;37874;53.158;6.766;2022-10-31T03:25:42;20.40;67.10
51815;DHT22;37874;53.158;6.766;2022-10-31T03:28:11;20.40;66.90
51815;DHT22;37874;53.158;6.766;2022-10-31T03:30:39;19.90;66.70
51815;DHT22;37874;53.158;6.766;2022-10-31T03:33:14;20.50;67.00
51815;DHT22;37874;53.158;6.766;2022-10-31T03:35:44;20.40;66.90
51815;DHT22;37874;53.158;6.766;2022-10-31T03:38:11;20.40;66.80
51815;DHT22;37874;53.158;6.766;2022-10-31T03:40:37;20.40;66.80
51815;DHT22;37874;53.158;6.766;2022-10-31T03:43:08;20.40;66.70
51815;DHT22;37874;53.158;6.766;2022-10-31T03:45:41;20.40;66.70
51815;DHT22;37874;53.158;6.766;2022-10-31T03:48:08;20.40;66.60
51815;DHT22;37874;53.158;6.766;2022-10-31T03:50:40;20.40;66.50
51815;DHT22;37874;53.158;6.766;2022-10-31T03:53:18;20.40;66.50
51815;DHT22;37874;53.158;6.766;2022-10-31T03:55:52;20.40;66.40
51815;DHT22;37874;53.158;6.766;2022-10-31T03:58:33;20.40;66.20
51815;DHT22;37874;53.158;6.766;2022-10-31T04:01:06;20.40;66.20
51815;DHT22;37874;53.158;6.766;2022-10-31T04:03:35;20.40;66.00
51815;DHT22;37874;53.158;6.766;2022-10-31T04:06:05;20.40;66.10
51815;DHT22;37874;53.158;6.766;2022-10-31T04:08:36;20.40;66.10
51815;DHT22;37874;53.158;6.766;2022-10-31T04:11:04;20.30;66.00
51815;DHT22;37874;53.158;6.766;2022-10-31T04:13:33;20.40;66.00
51815;DHT22;37874;53.158;6.766;2022-10-31T04:16:00;20.40;65.90
51815;DHT22;37874;53.158;6.766;2022-10-31T04:18:26;20.40;66.00
51815;DHT22;37874;53.158;6.766;2022-10-31T04:21:04;20.40;65.90
51815;DHT22;37874;53.158;6.766;2022-10-31T04:23:30;20.40;65.70
51815;DHT22;37874;53.158;6.766;2022-10-31T04:25:56;20.40;66.20
51815;DHT22;37874;53.158;6.766;2022-10-31T04:28:22;20.40;65.70
51815;DHT22;37874;53.158;6.766;2022-10-31T04:30:48;20.40;65.60
51815;DHT22;37874;53.158;6.766;2022-10-31T04:33:14;20.40;65.60
51815;DHT22;37874;53.158;6.766;2022-10-31T04:35:40;20.40;65.70
51815;DHT22;37874;53.158;6.766;2022-10-31T04:38:06;20.40;65.60
51815;DHT22;37874;53.158;6.766;2022-10-31T04:40:31;20.30;65.40
51815;DHT22;37874;53.158;6.766;2022-10-31T04:42:57;20.30;65.40
51815;DHT22;37874;53.158;6.766;2022-10-31T04:45:22;20.40;65.40
51815;DHT22;37874;53.158;6.766;2022-10-31T04:47:48;20.40;65.30
51815;DHT22;37874;53.158;6.766;2022-10-31T04:50:14;20.40;65.30
51815;DHT22;37874;53.158;6.766;2022-10-31T04:52:40;20.30;65.20
51815;DHT22;37874;53.158;6.766;2022-10-31T04:55:06;20.30;65.20
51815;DHT22;37874;53.158;6.766;2022-10-31T04:57:32;20.40;65.30
51815;DHT22;37874;53.158;6.766;2022-10-31T04:59:58;20.40;65.10
51815;DHT22;37874;53.158;6.766;2022-10-31T05:02:23;20.30;65.00
51815;DHT22;37874;53.158;6.766;2022-10-31T05:04:49;20.40;65.00
51815;DHT22;37874;53.158;6.766;2022-10-31T05:07:14;20.30;65.40
51815;DHT22;37874;53.158;6.766;2022-10-31T05:09:40;20.30;64.90
51815;DHT22;37874;53.158;6.766;2022-10-31T05:12:06;20.30;65.00
51815;DHT22;37874;53.158;6.766;2022-10-31T05:14:31;20.30;64.90
51815;DHT22;37874;53.158;6.766;2022-10-31T05:16:57;20.40;64.90
51815;DHT22;37874;53.158;6.766;2022-10-31T05:19:22;20.30;64.80
51815;DHT22;37874;53.158;6.766;2022-10-31T05:21:48;20.30;64.80
51815;DHT22;37874;53.158;6.766;2022-10-31T05:24:14;20.30;65.20
51815;DHT22;37874;53.158;6.766;2022-10-31T05:26:39;20.30;64.60
51815;DHT22;37874;53.158;6.766;2022-10-31T05:29:05;20.30;64.50
51815;DHT22;37874;53.158;6.766;2022-10-31T05:31:30;20.30;64.50
51815;DHT22;37874;53.158;6.766;2022-10-31T05:33:56;20.30;64.50
51815;DHT22;37874;53.158;6.766;2022-10-31T05:36:21;20.30;64.50
51815;DHT22;37874;53.158;6.766;2022-10-31T05:38:47;20.30;64.40
51815;DHT22;37874;53.158;6.766;2022-10-31T05:41:12;20.30;64.40
51815;DHT22;37874;53.158;6.766;2022-10-31T05:43:38;20.30;64.30
51815;DHT22;37874;53.158;6.766;2022-10-31T05:46:04;20.30;64.30
51815;DHT22;37874;53.158;6.766;2022-10-31T05:48:29;20.30;64.30
51815;DHT22;37874;53.158;6.766;2022-10-31T05:50:55;20.30;64.20
51815;DHT22;37874;53.158;6.766;2022-10-31T05:53:20;20.30;64.10
51815;DHT22;37874;53.158;6.766;2022-10-31T05:55:46;20.30;64.10
51815;DHT22;37874;53.158;6.766;2022-10-31T05:58:12;20.30;64.10
51815;DHT22;37874;53.158;6.766;2022-10-31T06:00:37;20.30;64.20
51815;DHT22;37874;53.158;6.766;2022-10-31T06:03:05;20.30;64.20
51815;DHT22;37874;53.158;6.766;2022-10-31T06:05:32;20.30;64.20
51815;DHT22;37874;53.158;6.766;2022-10-31T06:07:58;20.30;64.20
51815;DHT22;37874;53.158;6.766;2022-10-31T06:10:24;20.30;64.20
51815;DHT22;37874;53.158;6.766;2022-10-31T06:12:50;20.30;64.20
51815;DHT22;37874;53.158;6.766;2022-10-31T06:15:16;20.30;64.20
51815;DHT22;37874;53.158;6.766;2022-10-31T06:17:43;20.30;64.20
51815;DHT22;37874;53.158;6.766;2022-10-31T06:20:09;20.30;64.30
51815;DHT22;37874;53.158;6.766;2022-10-31T06:22:35;20.20;64.20
51815;DHT22;37874;53.158;6.766;2022-10-31T06:25:01;20.30;64.20
51815;DHT22;37874;53.158;6.766;2022-10-31T06:27:27;20.30;64.20
51815;DHT22;37874;53.158;6.766;2022-10-31T06:29:52;20.20;64.10
51815;DHT22;37874;53.158;6.766;2022-10-31T06:32:18;20.30;64.10
51815;DHT22;37874;53.158;6.766;2022-10-31T06:34:44;20.30;64.60
51815;DHT22;37874;53.158;6.766;2022-10-31T06:37:14;20.20;63.90
51815;DHT22;37874;53.158;6.766;2022-10-31T06:39:39;20.70;64.20
51815;DHT22;37874;53.158;6.766;2022-10-31T06:42:05;20.30;63.90
51815;DHT22;37874;53.158;6.766;2022-10-31T06:44:31;20.30;63.90
51815;DHT22;37874;53.158;6.766;2022-10-31T06:46:57;20.20;63.80
51815;DHT22;37874;53.158;6.766;2022-10-31T06:49:23;20.20;63.70
51815;DHT22;37874;53.158;6.766;2022-10-31T06:51:49;20.20;63.70
51815;DHT22;37874;53.158;6.766;2022-10-31T06:54:15;20.20;63.80
51815;DHT22;37874;53.158;6.766;2022-10-31T06:56:40;20.30;64.10
51815;DHT22;37874;53.158;6.766;2022-10-31T06:59:06;20.20;63.70
51815;DHT22;37874;53.158;6.766;2022-10-31T07:01:32;20.20;63.80
51815;DHT22;37874;53.158;6.766;2022-10-31T07:03:57;20.20;63.70
51815;DHT22;37874;53.158;6.766;2022-10-31T07:06:23;20.20;63.60
51815;DHT22;37874;53.158;6.766;2022-10-31T07:08:49;20.20;63.60
51815;DHT22;37874;53.158;6.766;2022-10-31T07:11:14;20.20;63.60
51815;DHT22;37874;53.158;6.766;2022-10-31T07:13:40;20.20;63.60
51815;DHT22;37874;53.158;6.766;2022-10-31T07:16:06;20.20;63.40
51815;DHT22;37874;53.158;6.766;2022-10-31T07:18:33;20.20;63.40
51815;DHT22;37874;53.158;6.766;2022-10-31T07:20:59;20.20;63.40
51815;DHT22;37874;53.158;6.766;2022-10-31T07:23:24;20.20;63.40
51815;DHT22;37874;53.158;6.766;2022-10-31T07:25:58;20.20;63.40
51815;DHT22;37874;53.158;6.766;2022-10-31T07:28:25;20.20;63.40
51815;DHT22;37874;53.158;6.766;2022-10-31T07:30:51;20.20;63.30
51815;DHT22;37874;53.158;6.766;2022-10-31T07:33:17;20.30;63.30
51815;DHT22;37874;53.158;6.766;2022-10-31T07:35:43;20.20;63.30
51815;DHT22;37874;53.158;6.766;2022-10-31T07:38:10;20.20;63.30
51815;DHT22;37874;53.158;6.766;2022-10-31T07:40:36;20.20;63.30
51815;DHT22;37874;53.158;6.766;2022-10-31T07:43:02;20.20;63.20
51815;DHT22;37874;53.158;6.766;2022-10-31T07:45:28;20.20;63.30
51815;DHT22;37874;53.158;6.766;2022-10-31T07:47:53;20.10;63.10
51815;DHT22;37874;53.158;6.766;2022-10-31T07:50:22;20.20;63.30
51815;DHT22;37874;53.158;6.766;2022-10-31T07:52:57;20.20;63.30
51815;DHT22;37874;53.158;6.766;2022-10-31T07:55:22;20.20;63.30
51815;DHT22;37874;53.158;6.766;2022-10-31T07:58:16;20.30;63.30
51815;DHT22;37874;53.158;6.766;2022-10-31T08:00:43;20.20;63.30
51815;DHT22;37874;53.158;6.766;2022-10-31T08:03:15;20.30;63.30
51815;DHT22;37874;53.158;6.766;2022-10-31T08:05:41;20.20;63.30
51815;DHT22;37874;53.158;6.766;2022-10-31T08:08:07;20.20;63.40
51815;DHT22;37874;53.158;6.766;2022-10-31T08:10:34;20.20;63.40
51815;DHT22;37874;53.158;6.766;2022-10-31T08:13:02;20.30;63.40
51815;DHT22;37874;53.158;6.766;2022-10-31T08:15:28;20.20;63.40
51815;DHT22;37874;53.158;6.766;2022-10-31T08:17:54;20.20;63.40
51815;DHT22;37874;53.158;6.766;2022-10-31T08:20:20;20.20;63.50
51815;DHT22;37874;53.158;6.766;2022-10-31T08:23:12;20.30;63.50
51815;DHT22;37874;53.158;6.766;2022-10-31T08:25:39;20.20;63.50
51815;DHT22;37874;53.158;6.766;2022-10-31T08:28:06;20.20;63.50
51815;DHT22;37874;53.158;6.766;2022-10-31T08:30:33;20.20;63.60
51815;DHT22;37874;53.158;6.766;2022-10-31T08:33:13;20.30;63.60
51815;DHT22;37874;53.158;6.766;2022-10-31T08:35:39;20.30;63.70
51815;DHT22;37874;53.158;6.766;2022-10-31T08:38:05;20.30;63.80
51815;DHT22;37874;53.158;6.766;2022-10-31T08:40:32;20.20;63.80
51815;DHT22;37874;53.158;6.766;2022-10-31T08:43:03;20.20;63.70
51815;DHT22;37874;53.158;6.766;2022-10-31T08:45:29;20.30;63.90
51815;DHT22;37874;53.158;6.766;2022-10-31T08:48:04;20.30;64.00
51815;DHT22;37874;53.158;6.766;2022-10-31T08:50:31;20.30;64.60
51815;DHT22;37874;53.158;6.766;2022-10-31T08:53:05;20.40;64.20
51815;DHT22;37874;53.158;6.766;2022-10-31T08:55:32;20.50;64.20
51815;DHT22;37874;53.158;6.766;2022-10-31T08:57:58;20.30;64.10
51815;DHT22;37874;53.158;6.766;2022-10-31T09:00:24;20.30;64.00
51815;DHT22;37874;53.158;6.766;2022-10-31T09:03:01;20.20;64.00
51815;DHT22;37874;53.158;6.766;2022-10-31T09:05:27;20.30;64.00
51815;DHT22;37874;53.158;6.766;2022-10-31T09:08:01;20.30;64.00
51815;DHT22;37874;53.158;6.766;2022-10-31T09:10:28;20.30;63.90
51815;DHT22;37874;53.158;6.766;2022-10-31T09:15:35;20.30;64.10
51815;DHT22;37874;53.158;6.766;2022-10-31T09:18:01;20.30;63.90
51815;DHT22;37874;53.158;6.766;2022-10-31T09:20:27;20.30;63.90
51815;DHT22;37874;53.158;6.766;2022-10-31T09:23:02;20.30;64.00
51815;DHT22;37874;53.158;6.766;2022-10-31T09:25:28;20.30;64.00
51815;DHT22;37874;53.158;6.766;2022-10-31T09:27:57;20.30;63.90
51815;DHT22;37874;53.158;6.766;2022-10-31T09:30:24;20.30;64.00
51815;DHT22;37874;53.158;6.766;2022-10-31T09:32:58;20.30;64.00
51815;DHT22;37874;53.158;6.766;2022-10-31T09:35:24;20.30;64.00
51815;DHT22;37874;53.158;6.766;2022-10-31T09:38:04;20.30;64.00
51815;DHT22;37874;53.158;6.766;2022-10-31T09:51:28;20.30;64.00
51815;DHT22;37874;53.158;6.766;2022-10-31T09:54:06;20.40;64.00
51815;DHT22;37874;53.158;6.766;2022-10-31T09:56:36;20.40;64.10
51815;DHT22;37874;53.158;6.766;2022-10-31T09:59:05;20.40;64.10
51815;DHT22;37874;53.158;6.766;2022-10-31T10:02:35;20.40;64.10
51815;DHT22;37874;53.158;6.766;2022-10-31T10:04:53;20.40;64.20
51815;DHT22;37874;53.158;6.766;2022-10-31T10:10:00;20.40;64.20
51815;DHT22;37874;53.158;6.766;2022-10-31T10:15:50;20.40;64.20
51815;DHT22;37874;53.158;6.766;2022-10-31T10:24:27;20.40;64.40
51815;DHT22;37874;53.158;6.766;2022-10-31T10:32:27;20.50;64.50
51815;DHT22;37874;53.158;6.766;2022-10-31T10:35:08;20.40;64.40
51815;DHT22;37874;53.158;6.766;2022-10-31T10:37:40;20.50;64.50
51815;DHT22;37874;53.158;6.766;2022-10-31T10:40:17;20.50;64.50
51815;DHT22;37874;53.158;6.766;2022-10-31T10:43:29;20.50;64.50
51815;DHT22;37874;53.158;6.766;2022-10-31T10:46:03;20.50;64.60
51815;DHT22;37874;53.158;6.766;2022-10-31T10:55:01;20.50;64.50
51815;DHT22;37874;53.158;6.766;2022-10-31T11:00:24;20.50;64.60
51815;DHT22;37874;53.158;6.766;2022-10-31T11:02:50;20.50;64.60
51815;DHT22;37874;53.158;6.766;2022-10-31T11:07:57;20.60;64.60
51815;DHT22;37874;53.158;6.766;2022-10-31T11:10:23;20.60;64.60
51815;DHT22;37874;53.158;6.766;2022-10-31T11:13:22;20.60;64.60
51815;DHT22;37874;53.158;6.766;2022-10-31T11:16:06;20.60;65.10
51815;DHT22;37874;53.158;6.766;2022-10-31T11:18:34;20.60;64.50
51815;DHT22;37874;53.158;6.766;2022-10-31T11:21:03;20.60;64.40
51815;DHT22;37874;53.158;6.766;2022-10-31T11:23:30;20.60;64.80
51815;DHT22;37874;53.158;6.766;2022-10-31T11:26:06;20.70;64.90
51815;DHT22;37874;53.158;6.766;2022-10-31T11:28:43;20.80;64.70
51815;DHT22;37874;53.158;6.766;2022-10-31T11:31:12;20.70;64.40
51815;DHT22;37874;53.158;6.766;2022-10-31T11:33:46;20.70;64.20
51815;DHT22;37874;53.158;6.766;2022-10-31T11:36:27;20.80;64.20
51815;DHT22;37874;53.158;6.766;2022-10-31T11:38:54;20.80;64.10
51815;DHT22;37874;53.158;6.766;2022-10-31T11:44:03;20.80;64.10
51815;DHT22;37874;53.158;6.766;2022-10-31T11:46:37;20.80;64.00
51815;DHT22;37874;53.158;6.766;2022-10-31T11:49:05;20.80;63.90
51815;DHT22;37874;53.158;6.766;2022-10-31T11:51:35;20.80;64.00
51815;DHT22;37874;53.158;6.766;2022-10-31T11:54:03;20.80;63.90
51815;DHT22;37874;53.158;6.766;2022-10-31T11:56:40;20.90;64.50
51815;DHT22;37874;53.158;6.766;2022-10-31T11:59:18;20.90;67.20
51815;DHT22;37874;53.158;6.766;2022-10-31T12:01:49;21.00;67.20
51815;DHT22;37874;53.158;6.766;2022-10-31T12:04:15;20.90;67.30
51815;DHT22;37874;53.158;6.766;2022-10-31T12:06:44;20.80;67.20
51815;DHT22;37874;53.158;6.766;2022-10-31T12:09:29;20.80;67.60
51815;DHT22;37874;53.158;6.766;2022-10-31T12:26:19;20.60;68.30
51815;DHT22;37874;53.158;6.766;2022-10-31T12:29:14;20.60;68.40
51815;DHT22;37874;53.158;6.766;2022-10-31T12:39:53;20.50;68.70
51815;DHT22;37874;53.158;6.766;2022-10-31T12:53:26;20.40;70.30
51815;DHT22;37874;53.158;6.766;2022-10-31T12:56:52;20.40;70.90
51815;DHT22;37874;53.158;6.766;2022-10-31T12:59:36;20.50;70.30
51815;DHT22;37874;53.158;6.766;2022-10-31T13:02:22;20.40;69.90
51815;DHT22;37874;53.158;6.766;2022-10-31T13:07:48;20.40;69.80
51815;DHT22;37874;53.158;6.766;2022-10-31T13:10:23;20.30;69.80
51815;DHT22;37874;53.158;6.766;2022-10-31T13:12:52;20.30;70.10
51815;DHT22;37874;53.158;6.766;2022-10-31T13:15:21;20.30;70.00
51815;DHT22;37874;53.158;6.766;2022-10-31T13:17:51;20.30;70.30
51815;DHT22;37874;53.158;6.766;2022-10-31T13:23:03;20.20;70.10
51815;DHT22;37874;53.158;6.766;2022-10-31T13:25:36;20.20;70.30
51815;DHT22;37874;53.158;6.766;2022-10-31T13:30:43;20.20;70.50
51815;DHT22;37874;53.158;6.766;2022-10-31T13:33:16;20.20;71.00
51815;DHT22;37874;53.158;6.766;2022-10-31T13:35:51;20.20;70.70
51815;DHT22;37874;53.158;6.766;2022-10-31T13:39:01;20.20;70.70
51815;DHT22;37874;53.158;6.766;2022-10-31T13:48:59;20.10;71.10
51815;DHT22;37874;53.158;6.766;2022-10-31T13:51:33;20.10;71.40
51815;DHT22;37874;53.158;6.766;2022-10-31T13:54:23;20.10;71.40
51815;DHT22;37874;53.158;6.766;2022-10-31T13:56:56;20.10;71.40
51815;DHT22;37874;53.158;6.766;2022-10-31T13:59:23;20.10;71.30
51815;DHT22;37874;53.158;6.766;2022-10-31T14:01:57;20.10;71.50
51815;DHT22;37874;53.158;6.766;2022-10-31T14:04:32;20.20;71.50
51815;DHT22;37874;53.158;6.766;2022-10-31T14:07:13;20.10;71.40
51815;DHT22;37874;53.158;6.766;2022-10-31T14:13:13;20.10;71.50
51815;DHT22;37874;53.158;6.766;2022-10-31T14:15:43;20.20;72.10
51815;DHT22;37874;53.158;6.766;2022-10-31T14:20:56;20.10;71.30
51815;DHT22;37874;53.158;6.766;2022-10-31T14:28:59;20.10;71.40
51815;DHT22;37874;53.158;6.766;2022-10-31T14:31:38;20.10;71.50
51815;DHT22;37874;53.158;6.766;2022-10-31T14:34:26;20.10;71.50
51815;DHT22;37874;53.158;6.766;2022-10-31T14:37:05;20.10;71.70
51815;DHT22;37874;53.158;6.766;2022-10-31T14:45:10;20.00;71.50
51815;DHT22;37874;53.158;6.766;2022-10-31T14:47:54;20.00;71.50
51815;DHT22;37874;53.158;6.766;2022-10-31T14:50:39;20.00;71.50
51815;DHT22;37874;53.158;6.766;2022-10-31T14:53:12;20.00;71.60
51815;DHT22;37874;53.158;6.766;2022-10-31T14:55:44;20.00;71.60
51815;DHT22;37874;53.158;6.766;2022-10-31T14:58:17;20.00;71.50
51815;DHT22;37874;53.158;6.766;2022-10-31T15:00:44;20.00;71.60
51815;DHT22;37874;53.158;6.766;2022-10-31T15:03:14;19.90;71.90
51815;DHT22;37874;53.158;6.766;2022-10-31T15:05:45;20.00;71.80
51815;DHT22;37874;53.158;6.766;2022-10-31T15:08:25;20.00;72.00
51815;DHT22;37874;53.158;6.766;2022-10-31T15:10:52;20.00;71.60
51815;DHT22;37874;53.158;6.766;2022-10-31T15:13:19;19.90;71.60
51815;DHT22;37874;53.158;6.766;2022-10-31T15:15:47;20.00;71.80
51815;DHT22;37874;53.158;6.766;2022-10-31T15:18:17;20.00;71.70
51815;DHT22;37874;53.158;6.766;2022-10-31T15:20:45;20.00;71.80
51815;DHT22;37874;53.158;6.766;2022-10-31T15:23:22;19.90;71.80
51815;DHT22;37874;53.158;6.766;2022-10-31T15:25:48;19.90;71.70
51815;DHT22;37874;53.158;6.766;2022-10-31T15:28:19;19.90;71.60
51815;DHT22;37874;53.158;6.766;2022-10-31T15:30:54;20.00;71.80
51815;DHT22;37874;53.158;6.766;2022-10-31T15:33:23;19.90;71.70
51815;DHT22;37874;53.158;6.766;2022-10-31T15:36:00;20.00;72.20
51815;DHT22;37874;53.158;6.766;2022-10-31T15:38:26;19.90;71.70
51815;DHT22;37874;53.158;6.766;2022-10-31T15:40:56;19.90;71.70
51815;DHT22;37874;53.158;6.766;2022-10-31T15:43:22;19.90;71.70
51815;DHT22;37874;53.158;6.766;2022-10-31T15:45:48;19.90;71.70
51815;DHT22;37874;53.158;6.766;2022-10-31T15:48:19;19.90;71.60
51815;DHT22;37874;53.158;6.766;2022-10-31T15:50:50;19.90;71.60
51815;DHT22;37874;53.158;6.766;2022-10-31T15:53:19;19.90;71.70
51815;DHT22;37874;53.158;6.766;2022-10-31T15:55:50;20.40;71.80
51815;DHT22;37874;53.158;6.766;2022-10-31T15:58:20;19.90;71.70
51815;DHT22;37874;53.158;6.766;2022-10-31T16:00:57;20.00;72.30
51815;DHT22;37874;53.158;6.766;2022-10-31T16:03:26;19.90;71.80
51815;DHT22;37874;53.158;6.766;2022-10-31T16:05:55;19.90;71.70
51815;DHT22;37874;53.158;6.766;2022-10-31T16:10:57;20.00;71.30
51815;DHT22;37874;53.158;6.766;2022-10-31T16:13:30;19.90;71.30
51815;DHT22;37874;53.158;6.766;2022-10-31T16:16:14;19.90;71.20
51815;DHT22;37874;53.158;6.766;2022-10-31T16:18:41;19.90;71.20
51815;DHT22;37874;53.158;6.766;2022-10-31T16:21:08;20.00;71.00
51815;DHT22;37874;53.158;6.766;2022-10-31T16:23:36;19.90;71.00
51815;DHT22;37874;53.158;6.766;2022-10-31T16:26:06;19.90;70.90
51815;DHT22;37874;53.158;6.766;2022-10-31T16:28:33;19.90;70.70
51815;DHT22;37874;53.158;6.766;2022-10-31T16:30:59;19.90;70.60
51815;DHT22;37874;53.158;6.766;2022-10-31T16:33:29;19.90;70.80
51815;DHT22;37874;53.158;6.766;2022-10-31T16:35:57;19.90;70.60
51815;DHT22;37874;53.158;6.766;2022-10-31T16:38:23;19.90;70.90
51815;DHT22;37874;53.158;6.766;2022-10-31T16:40:50;20.00;70.70
51815;DHT22;37874;53.158;6.766;2022-10-31T16:43:17;19.90;70.80
51815;DHT22;37874;53.158;6.766;2022-10-31T16:45:45;19.90;70.40
51815;DHT22;37874;53.158;6.766;2022-10-31T16:48:17;19.90;70.60
51815;DHT22;37874;53.158;6.766;2022-10-31T16:50:45;19.90;70.30
51815;DHT22;37874;53.158;6.766;2022-10-31T16:53:12;19.90;70.60
51815;DHT22;37874;53.158;6.766;2022-10-31T16:56:01;19.90;70.70
51815;DHT22;37874;53.158;6.766;2022-10-31T16:58:35;19.90;70.60
51815;DHT22;37874;53.158;6.766;2022-10-31T17:01:02;19.80;70.30
51815;DHT22;37874;53.158;6.766;2022-10-31T17:03:29;19.90;70.30
51815;DHT22;37874;53.158;6.766;2022-10-31T17:05:55;19.90;70.30
51815;DHT22;37874;53.158;6.766;2022-10-31T17:08:22;19.90;70.30
51815;DHT22;37874;53.158;6.766;2022-10-31T17:10:51;19.90;70.10
51815;DHT22;37874;53.158;6.766;2022-10-31T17:13:23;19.90;70.20
51815;DHT22;37874;53.158;6.766;2022-10-31T17:15:51;19.90;70.20
51815;DHT22;37874;53.158;6.766;2022-10-31T17:18:18;19.90;70.30
51815;DHT22;37874;53.158;6.766;2022-10-31T17:20:44;19.90;70.10
51815;DHT22;37874;53.158;6.766;2022-10-31T17:23:12;19.80;69.90
51815;DHT22;37874;53.158;6.766;2022-10-31T17:25:38;19.90;70.60
51815;DHT22;37874;53.158;6.766;2022-10-31T17:28:04;19.80;69.90
51815;DHT22;37874;53.158;6.766;2022-10-31T17:30:31;19.80;70.00
51815;DHT22;37874;53.158;6.766;2022-10-31T17:32:57;19.90;70.00
51815;DHT22;37874;53.158;6.766;2022-10-31T17:35:22;19.90;70.10
51815;DHT22;37874;53.158;6.766;2022-10-31T17:37:48;19.90;70.20
51815;DHT22;37874;53.158;6.766;2022-10-31T17:40:19;19.90;70.20
51815;DHT22;37874;53.158;6.766;2022-10-31T17:42:53;19.90;70.20
51815;DHT22;37874;53.158;6.766;2022-10-31T17:45:20;19.80;69.90
51815;DHT22;37874;53.158;6.766;2022-10-31T17:47:47;19.90;70.00
51815;DHT22;37874;53.158;6.766;2022-10-31T17:50:14;19.90;70.10
51815;DHT22;37874;53.158;6.766;2022-10-31T17:52:40;19.80;70.10
51815;DHT22;37874;53.158;6.766;2022-10-31T17:55:05;19.90;70.20
51815;DHT22;37874;53.158;6.766;2022-10-31T17:57:35;19.90;70.20
51815;DHT22;37874;53.158;6.766;2022-10-31T18:00:05;19.90;70.10
51815;DHT22;37874;53.158;6.766;2022-10-31T18:02:31;19.90;70.20
51815;DHT22;37874;53.158;6.766;2022-10-31T18:04:57;19.90;70.00
51815;DHT22;37874;53.158;6.766;2022-10-31T18:07:23;19.90;70.10
51815;DHT22;37874;53.158;6.766;2022-10-31T18:09:48;19.90;70.10